Amboy, WA

2:42 PM PDT on October 24, 2014 (GMT -0700)
Rock Creek Area | Change Station
CLOSE
Current Station
Personal Weather Station
Location: Battle Ground, WA
Elevation: 420 ft
Nearby Weather Stations
Active Advisory: Special Statement

Elev 420 ft 45.85 °N, 122.52 °W | Updated 1 minute ago

Overcast
Overcast
54.8 °F
Feels Like 54.8 °F
N
0.0
Wind Variable Wind from North
Gusts 7.0 mph

Today
High -- | Low -- °F
--% Chance of Precip.
Yesterday
High -- | Low -- °F
Precip. -- in
7:39 AM 6:08 PM
New Moon, 1% visible
Pressure 29.91 in
Visibility 10.0 miles
Clouds Overcast 11000 ft
Dew Point 52 °F
Humidity 91%
Rainfall 0.00 in
Snow Depth Not available.
UV 0.0 out of 12
Pollen .40 out of 12
Air Quality Not available.
Flu Activity Sporadic
METAR KSPB 242053Z AUTO 29003KT 10SM OVC110 13/11 A2991 RMK AO2 SLP127 T01330106 58023

More Conditions Fewer Conditions

Pressure 29.91 in
Visibility 10.0 miles
Clouds Overcast 11000 ft
Dew Point 52 °F
Humidity 91%
Rainfall 0.00 in
Snow Depth Not available.
UV 0.0 out of 12
Pollen .40 out of 12
Air Quality Not available.
Flu Activity Sporadic
METAR KSPB 242053Z AUTO 29003KT 10SM OVC110 13/11 A2991 RMK AO2 SLP127 T01330106 58023

More Conditions Fewer Conditions

10-Day Weather Forecast

Almanac

Astronomy

Oct. 24, 2014 Rise Set
Actual Time 7:39 AM PDT 6:08 PM PDT
Civil Twilight 7:08 AM PDT 6:39 PM PDT
Nautical Twilight 6:33 AM PDT 7:13 PM PDT
Astronomical Twilight 5:59 AM PDT 7:48 PM PDT
Moon 8:25 AM PDT 6:49 PM PDT
Length of Visible Light 11h 30m
Length of Day
10h 29m
Tomorrow will be 3m 2s shorter.
New Moon, 1% of the Moon is Illuminated
Today
New Moon
Oct 30
First Quarter
Nov 6
Full
Nov 14
Last Quarter
Nov 22
New

Today's Extremes

State Highs State Lows

Community

WunderPhotos

Upload Photos

1,764,676 photos uploaded!

WunderBlogs® & News

By Dr. Jeff Masters
Director of Meteorology, Weather Underground
By Kari Strenfel
Meteorologist, Weather Underground
By Christopher C. Burt
Weather Historian, Weather Underground
October 24, 2014
October 24, 2014
October 24, 2014

Nearby

Snow Depth

Station Depth Elevation
June Lake 0 in 3340 ft
Swift Creek 1 in 3770 ft
Spencer Meadow 0 in 3400 ft
Surprise Lakes 1 in 4250 ft
Potato Hill 0 in 4500 ft

Earthquake Activity

City Distance Mag. Time & Date
No recent earthquake activity has been reported nearby.
Minimum magnitude displayed is 2.5.

Coastal Water Temperatures

Place Temperature
No Stations Reporting

Nearby Weather Stations